Time;durP1;ratioP1;P1;durP2;ratioP2;P2;SDS_P1;SDS_P2;PMS_P1;PMS_P2;Temp;Humidity;BMP_temperature;BMP_pressure;BME280_temperature;BME280_humidity;BME280_pressure;Samples;Min_cycle;Max_cycle;Signal;HPM_P1;HPM_P2
2022/03/18 00:00:25;;;;;;;33.53;21.20;;;;;;;7.15;nan;101052.41;4895832;29;20331;-74
2022/03/18 00:02:53;;;;;;;36.80;25.58;;;;;;;7.17;nan;101054.09;4918691;29;20736;-75
2022/03/18 00:05:20;;;;;;;38.80;23.77;;;;;;;7.19;nan;101056.69;4918500;29;20217;-74
2022/03/18 00:07:45;;;;;;;35.13;20.17;;;;;;;7.18;nan;101054.94;4919576;29;20225;-74
2022/03/18 00:10:13;;;;;;;28.93;19.43;;;;;;;7.17;nan;101059.31;4918241;29;20236;-73
2022/03/18 00:12:38;;;;;;;32.85;20.52;;;;;;;7.18;nan;101063.63;4919609;29;20556;-74
2022/03/18 00:15:06;;;;;;;32.20;20.50;;;;;;;7.18;nan;101065.41;4918065;29;20209;-74
2022/03/18 00:17:32;;;;;;;23.33;17.60;;;;;;;7.16;nan;101065.44;4917898;29;20202;-74
2022/03/18 00:19:57;;;;;;;31.90;18.83;;;;;;;7.14;nan;101062.00;4920360;29;20571;-74
2022/03/18 00:22:22;;;;;;;29.30;19.73;;;;;;;7.15;nan;101057.63;4920440;29;20225;-73
2022/03/18 00:24:48;;;;;;;28.20;20.27;;;;;;;7.13;nan;101065.53;4920790;29;21386;-74
2022/03/18 00:27:13;;;;;;;27.40;17.17;;;;;;;7.12;nan;101066.41;4917898;29;20247;-74
2022/03/18 00:29:39;;;;;;;34.47;20.73;;;;;;;7.12;nan;101065.56;4919683;29;20222;-74
2022/03/18 00:32:04;;;;;;;35.70;18.27;;;;;;;7.12;nan;101066.41;4899976;29;20568;-74
2022/03/18 00:34:30;;;;;;;27.73;17.63;;;;;;;7.12;nan;101066.41;4921084;29;20592;-74
2022/03/18 00:36:55;;;;;;;32.60;20.17;;;;;;;7.12;nan;101068.19;4916022;29;20273;-74
2022/03/18 00:39:21;;;;;;;25.53;16.90;;;;;;;7.11;nan;101069.09;4919336;29;20205;-74
2022/03/18 00:41:47;;;;;;;27.93;17.40;;;;;;;7.10;nan;101068.19;4920393;29;20238;-73
2022/03/18 00:44:14;;;;;;;27.17;16.87;;;;;;;7.10;nan;101070.81;4919617;29;20468;-74
2022/03/18 00:46:40;;;;;;;31.30;17.33;;;;;;;7.10;nan;101073.44;4917266;29;20541;-74
2022/03/18 00:52:04;;;;;;;30.13;21.13;;;;;;;7.07;nan;101077.00;4919140;29;20228;-75
2022/03/18 00:54:39;;;;;;;33.85;18.55;;;;;;;7.04;nan;101077.06;4920512;29;20799;-74
2022/03/18 00:57:06;;;;;;;31.08;19.33;;;;;;;7.00;nan;101067.59;4919112;29;20209;-74
2022/03/18 00:59:32;;;;;;;32.42;19.92;;;;;;;7.00;nan;101074.59;4916661;29;20698;-74
2022/03/18 01:01:58;;;;;;;36.03;22.27;;;;;;;6.99;nan;101071.09;4916570;29;20618;-74
2022/03/18 01:04:25;;;;;;;35.03;20.40;;;;;;;6.98;nan;101076.38;4919840;29;20615;-74
2022/03/18 01:06:52;;;;;;;35.10;21.40;;;;;;;6.98;nan;101078.97;4917380;29;20205;-73
2022/03/18 01:09:19;;;;;;;30.38;17.52;;;;;;;6.98;nan;101076.38;4919215;29;20251;-73
2022/03/18 01:11:44;;;;;;;29.73;19.77;;;;;;;6.98;nan;101076.38;4917758;29;20202;-74
2022/03/18 01:14:10;;;;;;;34.17;20.27;;;;;;;6.99;nan;101080.69;4917754;29;20780;-74
2022/03/18 01:16:36;;;;;;;31.70;18.05;;;;;;;6.99;nan;101085.91;4914997;29;20735;-75
2022/03/18 01:19:02;;;;;;;32.30;20.90;;;;;;;6.99;nan;101084.16;4917784;29;20216;-73
2022/03/18 01:21:27;;;;;;;29.97;19.47;;;;;;;7.00;nan;101082.41;4918625;29;21020;-74
2022/03/18 01:23:53;;;;;;;29.67;18.17;;;;;;;7.00;nan;101079.81;4918524;29;20533;-73
2022/03/18 01:26:18;;;;;;;36.63;20.97;;;;;;;6.97;nan;101083.34;4918213;29;20268;-74
2022/03/18 01:28:44;;;;;;;32.60;19.60;;;;;;;6.98;nan;101084.19;4917517;29;20224;-73
2022/03/18 01:31:09;;;;;;;31.50;18.93;;;;;;;6.97;nan;101090.34;4918677;29;20634;-74
2022/03/18 01:33:36;;;;;;;27.33;17.80;;;;;;;6.94;nan;101086.03;4916736;29;20244;-73
2022/03/18 01:36:03;;;;;;;24.58;18.08;;;;;;;6.94;nan;101085.16;4917704;29;20487;-74
2022/03/18 01:38:28;;;;;;;30.88;18.80;;;;;;;6.92;nan;101082.59;4918820;29;20213;-73
2022/03/18 01:40:55;;;;;;;31.30;17.47;;;;;;;6.91;nan;101080.03;4918365;29;20213;-74
2022/03/18 01:43:21;;;;;;;26.98;18.02;;;;;;;6.91;nan;101085.25;4917772;29;20312;-73
2022/03/18 01:45:46;;;;;;;21.92;15.25;;;;;;;6.91;nan;101077.41;4918138;29;20316;-73
2022/03/18 01:48:13;;;;;;;29.67;17.90;;;;;;;6.90;nan;101079.16;4915103;29;20595;-74
2022/03/18 01:50:40;;;;;;;25.40;16.60;;;;;;;6.92;nan;101076.53;4918361;29;20233;-74
2022/03/18 01:53:07;;;;;;;29.17;17.98;;;;;;;6.89;nan;101082.69;4917433;29;20232;-73
2022/03/18 01:55:33;;;;;;;27.35;19.23;;;;;;;6.87;nan;101087.09;4915502;29;20576;-74
2022/03/18 01:57:58;;;;;;;24.77;15.63;;;;;;;6.85;nan;101087.09;4917625;29;20205;-74
2022/03/18 02:00:25;;;;;;;26.80;18.63;;;;;;;6.85;nan;101086.25;4915931;29;20640;-74
2022/03/18 02:02:52;;;;;;;31.08;20.38;;;;;;;6.85;nan;101083.66;4916743;29;20609;-73
2022/03/18 02:05:17;;;;;;;28.05;18.67;;;;;;;6.82;nan;101078.50;4918622;29;20355;-74
2022/03/18 02:07:45;;;;;;;29.93;18.13;;;;;;;6.81;nan;101076.78;4915084;29;20247;-74
2022/03/18 02:10:11;;;;;;;18.98;14.48;;;;;;;6.80;nan;101077.66;4917869;29;20469;-74
2022/03/18 02:12:36;;;;;;;23.90;15.67;;;;;;;6.77;nan;101078.59;4916417;29;20706;-74
2022/03/18 02:15:03;;;;;;;31.07;17.00;;;;;;;6.78;nan;101076.88;4917851;29;20552;-74
2022/03/18 02:17:29;;;;;;;23.20;14.68;;;;;;;6.76;nan;101073.44;4916182;29;20224;-75
2022/03/18 02:19:55;;;;;;;24.85;15.70;;;;;;;6.77;nan;101078.59;4917012;29;20279;-74
2022/03/18 02:22:25;;;;;;;20.30;13.70;;;;;;;6.77;nan;101085.59;4918956;29;20232;-74
2022/03/18 02:24:55;;;;;;;20.45;13.38;;;;;;;6.74;nan;101076.06;4918308;29;20528;-74
2022/03/18 02:27:21;;;;;;;21.27;14.50;;;;;;;6.71;nan;101078.75;4914641;29;20205;-74
2022/03/18 02:29:47;;;;;;;23.98;15.98;;;;;;;6.72;nan;101082.22;4916928;29;20209;-74
2022/03/18 02:32:13;;;;;;;25.70;14.60;;;;;;;6.70;nan;101079.66;4916562;29;20243;-74
2022/03/18 02:34:40;;;;;;;24.27;15.75;;;;;;;6.72;nan;101087.44;4919739;29;20220;-75
2022/03/18 02:37:07;;;;;;;21.58;13.20;;;;;;;6.71;nan;101094.44;4916758;29;20224;-74
2022/03/18 02:39:33;;;;;;;26.15;14.40;;;;;;;6.69;nan;101087.53;4915609;29;20747;-74
2022/03/18 02:41:59;;;;;;;22.15;14.20;;;;;;;6.66;nan;101085.84;4917241;29;20216;-74
2022/03/18 02:44:24;;;;;;;19.40;14.40;;;;;;;6.64;nan;101087.63;4914898;29;20218;-74
2022/03/18 02:46:50;;;;;;;21.80;12.80;;;;;;;6.63;nan;101088.53;4914052;29;20465;-74
2022/03/18 02:49:15;;;;;;;19.97;13.60;;;;;;;6.63;nan;101093.75;4916410;29;20746;-74
2022/03/18 02:51:41;;;;;;;19.77;13.97;;;;;;;6.62;nan;101090.28;4917603;29;20206;-75
2022/03/18 02:54:07;;;;;;;29.23;12.90;;;;;;;6.60;nan;101086.00;4917991;29;20233;-74
2022/03/18 02:56:34;;;;;;;19.75;13.80;;;;;;;6.61;nan;101087.69;4914389;29;20220;-74
2022/03/18 02:59:00;;;;;;;16.70;12.32;;;;;;;6.60;nan;101086.00;4913953;29;20217;-74
2022/03/18 03:01:32;;;;;;;20.75;14.27;;;;;;;6.60;nan;101086.84;4915970;29;20501;-74
2022/03/18 03:03:59;;;;;;;22.08;13.80;;;;;;;6.57;nan;101092.16;4914560;29;20233;-74
2022/03/18 03:09:09;;;;;;;17.05;12.95;;;;;;;6.53;nan;101094.84;4918534;29;20261;-74
2022/03/18 03:11:34;;;;;;;22.60;14.53;;;;;;;6.52;nan;101098.38;4920563;29;20640;-73
2022/03/18 03:14:00;;;;;;;18.70;11.63;;;;;;;6.50;nan;101097.53;4920696;29;20963;-74
2022/03/18 03:16:26;;;;;;;22.23;14.17;;;;;;;6.48;nan;101101.94;4920366;29;20217;-73
2022/03/18 03:18:52;;;;;;;20.20;15.13;;;;;;;6.47;nan;101105.44;4920807;29;20461;-74
2022/03/18 03:21:17;;;;;;;25.57;14.60;;;;;;;6.47;nan;101100.22;4919950;29;21390;-74
2022/03/18 03:23:43;;;;;;;24.10;13.00;;;;;;;6.47;nan;101100.22;4920490;29;20481;-74
2022/03/18 03:26:08;;;;;;;21.00;13.57;;;;;;;6.47;nan;101111.53;4920969;29;20198;-73
2022/03/18 03:28:34;;;;;;;19.30;13.23;;;;;;;6.47;nan;101105.44;4917584;29;21049;-74
2022/03/18 03:31:00;;;;;;;20.98;15.88;;;;;;;6.49;nan;101109.75;4916983;29;20511;-73
2022/03/18 03:33:26;;;;;;;17.30;14.00;;;;;;;6.48;nan;101112.38;4918159;29;20217;-73
2022/03/18 03:35:52;;;;;;;16.92;12.50;;;;;;;6.46;nan;101115.03;4920126;29;20241;-73
2022/03/18 03:38:19;;;;;;;15.02;11.23;;;;;;;6.45;nan;101117.66;4918313;29;20308;-73
2022/03/18 03:40:44;;;;;;;23.00;13.40;;;;;;;6.41;nan;101122.97;4916039;29;20210;-73
2022/03/18 03:43:10;;;;;;;16.80;13.03;;;;;;;6.39;nan;101116.91;4917713;29;20301;-73
2022/03/18 03:45:37;;;;;;;15.00;11.43;;;;;;;6.39;nan;101122.13;4917901;29;20836;-74
2022/03/18 03:48:04;;;;;;;18.30;13.50;;;;;;;6.40;nan;101123.00;4895731;29;20734;-73
2022/03/18 03:50:29;;;;;;;16.73;11.25;;;;;;;6.38;nan;101115.19;4919183;29;20240;-74
2022/03/18 03:52:55;;;;;;;14.50;11.47;;;;;;;6.37;nan;101117.81;4916947;29;20237;-74
2022/03/18 03:55:20;;;;;;;17.20;12.47;;;;;;;6.35;nan;101127.47;4900828;29;20197;-73
2022/03/18 03:57:46;;;;;;;22.50;14.20;;;;;;;6.34;nan;101121.38;4917318;29;20755;-74
2022/03/18 04:00:13;;;;;;;16.70;13.20;;;;;;;6.35;nan;101123.09;4919956;29;20245;-74
2022/03/18 04:02:38;;;;;;;18.67;12.45;;;;;;;6.34;nan;101123.97;4919321;29;20225;-75
2022/03/18 04:05:07;;;;;;;22.40;13.23;;;;;;;6.32;nan;101131.00;4918287;29;20679;-75
2022/03/18 04:07:35;;;;;;;20.92;13.02;;;;;;;6.30;nan;101124.94;4916265;29;20213;-73
2022/03/18 04:10:02;;;;;;;17.52;13.05;;;;;;;6.28;nan;101131.09;4920976;29;20771;-74
2022/03/18 04:12:27;;;;;;;20.15;13.52;;;;;;;6.25;nan;101134.63;4920280;29;21191;-74
2022/03/18 04:14:53;;;;;;;19.97;12.90;;;;;;;6.25;nan;101129.41;4918412;29;21178;-75
2022/03/18 04:17:18;;;;;;;16.10;11.93;;;;;;;6.25;nan;101136.38;4919266;29;20220;-73
2022/03/18 04:19:44;;;;;;;20.63;12.70;;;;;;;6.25;nan;101136.38;4919306;29;20209;-74
2022/03/18 04:22:10;;;;;;;17.60;12.57;;;;;;;6.25;nan;101141.59;4917240;29;20237;-74
2022/03/18 04:24:36;;;;;;;12.75;10.07;;;;;;;6.25;nan;101145.06;4919206;29;20223;-72
2022/03/18 04:27:01;;;;;;;19.70;14.53;;;;;;;6.26;nan;101140.69;4918222;29;20213;-73
2022/03/18 04:29:26;;;;;;;18.03;12.90;;;;;;;6.25;nan;101147.66;4902858;29;20535;-72
2022/03/18 04:31:52;;;;;;;16.87;12.20;;;;;;;6.24;nan;101151.19;4901353;29;20205;-73
2022/03/18 04:34:18;;;;;;;13.47;11.37;;;;;;;6.24;nan;101145.06;4917300;29;20225;-73
2022/03/18 04:36:44;;;;;;;15.47;11.87;;;;;;;6.24;nan;101152.91;4914010;29;20231;-73
2022/03/18 04:39:10;;;;;;;18.02;11.07;;;;;;;6.24;nan;101155.50;4917237;29;20206;-73
2022/03/18 04:41:35;;;;;;;11.47;10.00;;;;;;;6.24;nan;101160.72;4917780;29;20201;-74
2022/03/18 04:44:01;;;;;;;16.87;12.20;;;;;;;6.25;nan;101162.47;4919144;29;20713;-74
2022/03/18 04:46:28;;;;;;;19.53;12.40;;;;;;;6.25;nan;101160.72;4916236;29;20209;-73
2022/03/18 04:48:54;;;;;;;19.15;13.25;;;;;;;6.25;nan;101158.09;4917344;29;20449;-74
2022/03/18 04:51:20;;;;;;;12.88;9.93;;;;;;;6.24;nan;101155.50;4917330;29;20551;-74
2022/03/18 04:53:46;;;;;;;18.75;10.73;;;;;;;6.23;nan;101165.09;4917216;29;20225;-74
2022/03/18 04:57:15;;;;;;;17.00;10.90;;;;;;;6.23;nan;101167.72;4916962;29;20225;-74
2022/03/18 04:58:57;;;;;;;25.90;13.60;;;;;;;6.24;nan;101161.63;4918509;29;20296;-74
2022/03/18 05:01:23;;;;;;;16.88;11.93;;;;;;;6.25;nan;101170.31;4893195;29;20636;-74
2022/03/18 05:03:48;;;;;;;15.77;11.27;;;;;;;6.24;nan;101172.06;4918521;29;20473;-74
2022/03/18 05:06:14;;;;;;;17.80;12.73;;;;;;;6.22;nan;101173.81;4918628;29;20248;-74
2022/03/18 05:08:40;;;;;;;13.00;10.67;;;;;;;6.22;nan;101171.22;4918039;29;20646;-74
2022/03/18 05:11:05;;;;;;;16.00;10.63;;;;;;;6.21;nan;101174.69;4916984;29;20265;-74
2022/03/18 05:13:30;;;;;;;18.90;12.37;;;;;;;6.23;nan;101178.16;4919132;29;20481;-74
2022/03/18 05:15:56;;;;;;;13.47;10.97;;;;;;;6.22;nan;101171.22;4918248;29;21065;-74
2022/03/18 05:18:22;;;;;;;17.53;10.60;;;;;;;6.23;nan;101183.38;4918400;29;20564;-74
2022/03/18 05:20:48;;;;;;;15.73;10.73;;;;;;;6.22;nan;101188.63;4918706;29;20647;-74
2022/03/18 05:23:14;;;;;;;13.47;10.60;;;;;;;6.21;nan;101187.75;4919522;29;20229;-74
2022/03/18 05:25:40;;;;;;;14.20;12.17;;;;;;;6.22;nan;101194.69;4916275;29;21328;-74
2022/03/18 05:28:07;;;;;;;15.27;10.98;;;;;;;6.21;nan;101192.97;4916870;29;20496;-75
2022/03/18 05:30:33;;;;;;;20.50;12.80;;;;;;;6.21;nan;101198.19;4916202;29;20233;-75
2022/03/18 05:32:58;;;;;;;20.03;14.00;;;;;;;6.24;nan;101199.88;4915768;29;20858;-74
2022/03/18 05:35:24;;;;;;;17.10;12.07;;;;;;;6.24;nan;101202.47;4916758;29;20476;-75
2022/03/18 05:37:51;;;;;;;15.27;10.90;;;;;;;6.24;nan;101197.25;4919408;29;20256;-75
2022/03/18 05:40:18;;;;;;;13.20;11.00;;;;;;;6.24;nan;101203.38;4917804;29;20631;-74
2022/03/18 05:42:45;;;;;;;18.77;11.23;;;;;;;6.24;nan;101207.69;4918414;29;20233;-75
2022/03/18 05:45:10;;;;;;;18.05;10.93;;;;;;;6.25;nan;101204.22;4901565;29;20788;-75
2022/03/18 05:47:36;;;;;;;15.57;10.80;;;;;;;6.24;nan;101211.19;4916624;29;20202;-75
2022/03/18 05:50:05;;;;;;;16.00;10.20;;;;;;;6.23;nan;101213.81;4915801;29;20229;-75
2022/03/18 05:52:35;;;;;;;16.02;9.82;;;;;;;6.21;nan;101211.22;4916326;29;20979;-75
2022/03/18 05:55:01;;;;;;;17.42;10.75;;;;;;;6.20;nan;101212.97;4918194;29;20213;-75
2022/03/18 05:57:30;;;;;;;16.00;10.00;;;;;;;6.22;nan;101212.97;4918155;29;20226;-74
2022/03/18 05:59:57;;;;;;;11.85;9.38;;;;;;;6.22;nan;101215.56;4915149;29;20656;-75
2022/03/18 06:02:23;;;;;;;19.98;15.48;;;;;;;6.23;nan;101203.38;4916883;29;21442;-75
2022/03/18 06:04:48;;;;;;;11.70;8.90;;;;;;;6.23;nan;101219.91;4916824;29;20205;-75
2022/03/18 06:07:14;;;;;;;16.83;11.37;;;;;;;6.24;nan;101213.81;4920405;29;20428;-75
2022/03/18 06:12:24;;;;;;;12.98;9.20;;;;;;;6.25;nan;101223.34;4917006;29;21068;-75
2022/03/18 06:14:49;;;;;;;15.30;11.70;;;;;;;6.26;nan;101224.19;4908966;29;20527;-75
2022/03/18 06:17:14;;;;;;;10.87;9.10;;;;;;;6.26;nan;101224.19;4917828;29;20209;-75
2022/03/18 06:19:40;;;;;;;14.07;9.53;;;;;;;6.27;nan;101226.78;4918272;29;20252;-75
2022/03/18 06:22:07;;;;;;;16.50;11.30;;;;;;;6.28;nan;101235.47;4915960;29;20205;-75
2022/03/18 06:24:32;;;;;;;11.15;9.68;;;;;;;6.27;nan;101226.78;4912488;29;20866;-75
2022/03/18 06:26:58;;;;;;;14.17;9.80;;;;;;;6.28;nan;101238.94;4909276;29;20462;-74
2022/03/18 06:29:24;;;;;;;12.83;8.30;;;;;;;6.29;nan;101235.44;4911838;29;20926;-74
2022/03/18 06:31:51;;;;;;;13.93;10.40;;;;;;;6.31;nan;101240.63;4910191;29;20497;-74
2022/03/18 06:34:17;;;;;;;13.98;9.73;;;;;;;6.32;nan;101242.31;4913146;29;20571;-74
2022/03/18 06:36:43;;;;;;;17.42;10.48;;;;;;;6.31;nan;101243.22;4912400;29;20221;-74
2022/03/18 06:39:09;;;;;;;17.03;10.57;;;;;;;6.31;nan;101243.22;4910673;29;20474;-74
2022/03/18 06:41:35;;;;;;;19.80;9.85;;;;;;;6.32;nan;101253.66;4914139;29;20465;-74
2022/03/18 06:44:01;;;;;;;15.38;9.88;;;;;;;6.31;nan;101264.97;4918592;29;20256;-74
2022/03/18 06:46:26;;;;;;;12.50;9.33;;;;;;;6.32;nan;101248.44;4917552;29;20716;-74
2022/03/18 06:48:52;;;;;;;18.83;8.90;;;;;;;6.32;nan;101253.66;4915411;29;20209;-74
2022/03/18 06:51:18;;;;;;;16.40;8.40;;;;;;;6.32;nan;101256.25;4912766;29;20486;-74
2022/03/18 06:53:43;;;;;;;12.67;9.20;;;;;;;6.33;nan;101247.53;4915114;29;20692;-74
2022/03/18 06:56:12;;;;;;;16.95;9.95;;;;;;;6.32;nan;101253.66;4915542;29;20300;-75
2022/03/18 06:58:39;;;;;;;12.75;10.70;;;;;;;6.34;nan;101251.00;4913770;29;20209;-74
2022/03/18 07:01:05;;;;;;;16.50;9.23;;;;;;;6.35;nan;101252.75;4914720;29;20288;-74
2022/03/18 07:03:31;;;;;;;13.63;10.47;;;;;;;6.37;nan;101261.38;4915368;29;20343;-74
2022/03/18 07:05:56;;;;;;;13.00;9.40;;;;;;;6.35;nan;101261.41;4915422;29;20540;-74
2022/03/18 07:08:21;;;;;;;14.70;9.57;;;;;;;6.37;nan;101257.03;4915304;29;20746;-74
2022/03/18 07:10:47;;;;;;;17.47;9.03;;;;;;;6.37;nan;101261.38;4914548;29;20603;-74
2022/03/18 07:13:14;;;;;;;11.17;8.47;;;;;;;6.39;nan;101267.44;4913773;29;20229;-74
2022/03/18 07:15:39;;;;;;;13.68;9.13;;;;;;;6.39;nan;101270.88;4915791;29;20667;-74
2022/03/18 07:18:04;;;;;;;15.57;8.60;;;;;;;6.41;nan;101273.50;4914379;29;20341;-74
2022/03/18 07:20:36;;;;;;;13.07;8.80;;;;;;;6.42;nan;101265.59;4914914;29;20209;-74
2022/03/18 07:23:10;;;;;;;13.75;8.52;;;;;;;6.48;nan;101266.38;4913046;29;20750;-74
2022/03/18 07:25:37;;;;;;;18.35;8.95;;;;;;;6.52;nan;101265.44;4916044;29;20202;-74
2022/03/18 07:28:05;;;;;;;13.48;8.40;;;;;;;6.55;nan;101266.22;4914522;29;20978;-74
2022/03/18 07:30:30;;;;;;;16.33;9.80;;;;;;;6.59;nan;101267.91;4913883;29;20489;-74
2022/03/18 07:32:56;;;;;;;12.77;8.93;;;;;;;6.61;nan;101265.25;4914206;29;20255;-74
2022/03/18 07:35:22;;;;;;;10.03;8.10;;;;;;;6.64;nan;101271.28;4898560;29;20586;-74
2022/03/18 07:37:48;;;;;;;14.35;10.77;;;;;;;6.68;nan;101266.84;4914664;29;20213;-75
2022/03/18 07:40:15;;;;;;;15.07;9.30;;;;;;;6.77;nan;101260.56;4914301;29;20246;-74
2022/03/18 07:42:42;;;;;;;17.77;10.68;;;;;;;6.83;nan;101266.53;4914285;29;20225;-74
2022/03/18 07:45:13;;;;;;;12.27;9.10;;;;;;;6.92;nan;101273.28;4914956;29;20212;-74
2022/03/18 07:47:39;;;;;;;14.68;9.18;;;;;;;7.02;nan;101268.72;4913853;29;20261;-74
2022/03/18 07:50:05;;;;;;;13.98;8.75;;;;;;;7.12;nan;101266.75;4915678;29;20244;-74
2022/03/18 07:52:31;;;;;;;12.70;8.77;;;;;;;7.17;nan;101264.91;4913882;29;20217;-74
2022/03/18 07:54:56;;;;;;;12.40;8.50;;;;;;;7.22;nan;101266.50;4914382;29;20292;-75
2022/03/18 07:57:22;;;;;;;14.40;8.80;;;;;;;7.27;nan;101266.41;4914411;29;20254;-74
2022/03/18 07:59:47;;;;;;;12.57;7.60;;;;;;;7.32;nan;101270.63;4912497;29;20357;-74
2022/03/18 08:02:12;;;;;;;11.87;8.80;;;;;;;7.41;nan;101271.31;4914698;29;20496;-74
2022/03/18 08:04:38;;;;;;;13.87;9.20;;;;;;;7.48;nan;101270.25;4912197;29;20297;-74
2022/03/18 08:07:04;;;;;;;12.50;9.17;;;;;;;7.48;nan;101284.22;4914277;29;20269;-75
2022/03/18 08:09:29;;;;;;;20.52;8.52;;;;;;;7.51;nan;101276.28;4915368;29;20977;-74
2022/03/18 08:11:56;;;;;;;12.17;8.27;;;;;;;7.54;nan;101276.22;4913155;29;20285;-75
2022/03/18 08:14:23;;;;;;;10.52;8.32;;;;;;;7.58;nan;101276.13;4914155;29;20284;-74
2022/03/18 08:16:49;;;;;;;10.50;8.43;;;;;;;7.59;nan;101277.84;4913866;29;20210;-74
2022/03/18 08:19:14;;;;;;;14.98;7.75;;;;;;;7.69;nan;101279.34;4912253;29;20571;-74
2022/03/18 08:21:40;;;;;;;13.83;8.17;;;;;;;7.79;nan;101286.06;4932371;29;20678;-74
2022/03/18 08:24:06;;;;;;;15.57;8.23;;;;;;;7.92;nan;101282.25;4932616;29;20342;-74
2022/03/18 08:26:36;;;;;;;13.07;8.90;;;;;;;8.08;nan;101287.94;4933662;29;20200;-74
2022/03/18 08:29:03;;;;;;;12.77;8.52;;;;;;;8.17;nan;101278.97;4932400;29;20700;-74
2022/03/18 08:31:30;;;;;;;12.55;7.72;;;;;;;8.20;nan;101295.44;4932327;29;20522;-75
2022/03/18 08:33:56;;;;;;;10.90;6.82;;;;;;;8.18;nan;101291.16;4932244;29;20241;-75
2022/03/18 08:36:21;;;;;;;13.10;8.68;;;;;;;8.17;nan;101292.06;4930968;29;20212;-74
2022/03/18 08:38:47;;;;;;;16.10;8.83;;;;;;;8.16;nan;101293.81;4932873;29;20197;-74
2022/03/18 08:41:12;;;;;;;7.30;6.20;;;;;;;8.26;nan;101302.28;4934318;29;20842;-74
2022/03/18 08:43:38;;;;;;;10.53;7.27;;;;;;;8.36;nan;101298.50;4934443;29;20824;-75
2022/03/18 08:46:03;;;;;;;10.97;7.30;;;;;;;8.43;nan;101304.47;4932772;29;20494;-75
2022/03/18 08:48:29;;;;;;;12.03;8.10;;;;;;;8.53;nan;101315.53;4933870;29;20217;-75
2022/03/18 08:50:54;;;;;;;12.70;9.27;;;;;;;8.62;nan;101295.19;4932649;29;20698;-75
2022/03/18 08:53:19;;;;;;;10.70;8.10;;;;;;;8.73;nan;101296.66;4932484;29;20278;-75
2022/03/18 08:55:45;;;;;;;15.00;10.07;;;;;;;8.85;nan;101305.00;4931816;29;20248;-75
2022/03/18 08:58:10;;;;;;;14.50;9.17;;;;;;;9.01;nan;101297.53;4931824;29;20220;-75
2022/03/18 09:00:36;;;;;;;7.30;5.20;;;;;;;9.25;nan;101298.56;4931199;29;20938;-74
2022/03/18 09:03:01;;;;;;;14.80;10.40;;;;;;;9.52;nan;101295.97;4931887;29;20502;-75
2022/03/18 09:05:27;;;;;;;15.83;11.50;;;;;;;9.56;nan;101302.84;4932059;28;20670;-75
2022/03/18 09:07:52;;;;;;;11.40;7.43;;;;;;;9.62;nan;101301.78;4930780;29;20370;-75
2022/03/18 09:10:17;;;;;;;14.60;9.40;;;;;;;9.79;nan;101301.25;4933948;29;20229;-74
2022/03/18 09:12:44;;;;;;;12.03;8.17;;;;;;;9.92;nan;101308.66;4930785;29;20207;-75
2022/03/18 09:15:10;;;;;;;13.85;8.45;;;;;;;10.02;nan;101305.69;4932201;29;20205;-74
2022/03/18 09:17:35;;;;;;;13.20;9.37;;;;;;;10.07;nan;101311.66;4930501;29;20205;-74
2022/03/18 09:20:01;;;;;;;13.37;8.67;;;;;;;10.12;nan;101310.56;4929391;29;20205;-74
2022/03/18 09:22:26;;;;;;;12.10;10.00;;;;;;;10.20;nan;101307.69;4928960;29;20267;-74
2022/03/18 09:24:51;;;;;;;12.77;7.40;;;;;;;10.28;nan;101305.69;4929162;29;20590;-74
2022/03/18 09:27:17;;;;;;;16.17;9.93;;;;;;;10.25;nan;101311.00;4930295;29;20216;-74
2022/03/18 09:29:43;;;;;;;14.85;10.80;;;;;;;10.23;nan;101314.59;4927835;29;20836;-74
2022/03/18 09:32:09;;;;;;;15.05;10.23;;;;;;;10.24;nan;101316.34;4929113;29;20209;-74
2022/03/18 09:34:35;;;;;;;11.20;9.00;;;;;;;10.17;nan;101315.69;4931903;29;20196;-75
2022/03/18 09:37:01;;;;;;;14.37;10.33;;;;;;;10.10;nan;101316.78;4931149;29;20456;-75
2022/03/18 09:39:27;;;;;;;14.32;8.88;;;;;;;10.10;nan;101317.66;4930277;29;20236;-75
2022/03/18 09:41:53;;;;;;;14.80;9.70;;;;;;;10.21;nan;101319.94;4931875;29;21684;-74
2022/03/18 09:44:20;;;;;;;12.77;8.55;;;;;;;10.36;nan;101318.56;4931731;29;20212;-74
2022/03/18 09:46:47;;;;;;;16.55;10.23;;;;;;;10.56;nan;101325.75;4931807;29;20291;-75
2022/03/18 09:49:18;;;;;;;12.60;10.20;;;;;;;10.69;nan;101320.88;4931690;29;20205;-75
2022/03/18 09:51:48;;;;;;;13.75;9.95;;;;;;;10.76;nan;101317.13;4932107;29;20245;-74
2022/03/18 09:54:24;;;;;;;15.30;9.80;;;;;;;10.81;nan;101321.28;4930910;29;20768;-75
2022/03/18 09:56:50;;;;;;;22.40;14.00;;;;;;;10.84;nan;101317.69;4930781;29;20217;-74
2022/03/18 09:59:16;;;;;;;17.07;12.20;;;;;;;10.87;nan;101319.34;4932957;29;20204;-75
2022/03/18 10:01:42;;;;;;;20.52;15.30;;;;;;;10.92;nan;101315.63;4931174;29;20558;-75
2022/03/18 10:04:11;;;;;;;21.40;14.00;;;;;;;11.14;nan;101318.28;4930740;29;20295;-75
2022/03/18 10:06:38;;;;;;;21.90;12.73;;;;;;;11.42;nan;101310.19;4934489;29;20468;-75
2022/03/18 10:09:05;;;;;;;21.73;15.13;;;;;;;11.55;nan;101309.69;4932763;29;20212;-75
2022/03/18 10:11:34;;;;;;;20.77;13.73;;;;;;;11.57;nan;101313.97;4932936;29;20308;-75
2022/03/18 10:14:06;;;;;;;25.17;14.80;;;;;;;11.60;nan;101319.09;4930436;29;20271;-75
2022/03/18 10:16:45;;;;;;;21.45;13.27;;;;;;;11.65;nan;101318.91;4931393;28;20482;-75
2022/03/18 10:19:15;;;;;;;27.55;18.02;;;;;;;11.73;nan;101316.84;4938995;29;20287;-74
2022/03/18 10:21:56;;;;;;;24.48;17.10;;;;;;;11.92;nan;101316.97;4936662;29;20547;-75
2022/03/18 10:24:28;;;;;;;30.77;20.30;;;;;;;11.98;nan;101319.31;4937528;29;20294;-75
2022/03/18 10:27:15;;;;;;;33.88;19.55;;;;;;;12.08;nan;101325.94;4939122;29;20234;-75
2022/03/18 10:29:46;;;;;;;26.83;17.10;;;;;;;12.06;nan;101330.41;4937748;28;20243;-75
2022/03/18 10:32:13;;;;;;;21.08;14.82;;;;;;;12.09;nan;101322.34;4939755;28;20232;-75
2022/03/18 10:37:26;;;;;;;28.65;16.95;;;;;;;12.07;nan;101320.72;4938181;29;20250;-74
2022/03/18 10:40:00;;;;;;;29.05;20.17;;;;;;;12.04;nan;101321.69;4937730;29;20319;-74
2022/03/18 10:42:25;;;;;;;27.25;20.15;;;;;;;12.04;nan;101324.31;4938443;28;20661;-75
2022/03/18 10:44:59;;;;;;;33.13;19.53;;;;;;;12.07;nan;101318.06;4938826;29;21016;-74
2022/03/18 10:47:27;;;;;;;29.33;18.52;;;;;;;11.97;nan;101317.63;4900314;29;20249;-75
2022/03/18 10:50:29;;;;;;;32.08;20.25;;;;;;;11.87;nan;101319.78;4899388;29;20462;-74
2022/03/18 10:52:56;;;;;;;26.38;18.70;;;;;;;11.94;nan;101315.97;4899932;29;20288;-74
2022/03/18 10:55:23;;;;;;;28.23;17.50;;;;;;;12.01;nan;101316.56;4900884;29;20218;-75
2022/03/18 10:57:54;;;;;;;30.05;18.90;;;;;;;12.07;nan;101326.84;4898470;29;20213;-74
2022/03/18 11:00:22;;;;;;;27.77;18.15;;;;;;;12.10;nan;101328.50;4899635;29;20237;-74
2022/03/18 11:02:50;;;;;;;31.73;19.25;;;;;;;12.03;nan;101335.78;4899607;29;20276;-75
2022/03/18 11:05:21;;;;;;;35.40;21.42;;;;;;;12.03;nan;101325.25;4898945;29;20319;-75
2022/03/18 11:07:50;;;;;;;22.57;15.77;;;;;;;12.05;nan;101339.22;4691712;29;5002353;-75
2022/03/18 11:13:03;;;;;;;26.02;18.10;;;;;;;11.93;nan;101335.31;4918922;29;20694;-75
2022/03/18 11:15:34;;;;;;;27.75;18.13;;;;;;;11.83;nan;101333.97;4919229;29;20691;-74
2022/03/18 11:18:03;;;;;;;25.02;18.15;;;;;;;11.76;nan;101326.38;4918801;29;20201;-74
2022/03/18 11:20:32;;;;;;;21.58;14.48;;;;;;;11.66;nan;101337.28;4917301;29;20215;-74
2022/03/18 11:22:58;;;;;;;22.42;13.88;;;;;;;11.63;nan;101326.88;4917245;29;20229;-74
2022/03/18 11:25:25;;;;;;;28.90;18.40;;;;;;;11.62;nan;101326.94;4918964;29;20216;-74
2022/03/18 11:27:52;;;;;;;28.67;17.10;;;;;;;11.59;nan;101325.28;4914582;29;20217;-73
2022/03/18 11:30:21;;;;;;;27.40;18.02;;;;;;;11.70;nan;101324.88;4899906;29;20230;-75
2022/03/18 11:33:15;;;;;;;29.55;19.67;;;;;;;11.84;nan;101330.41;4915043;29;20226;-74
2022/03/18 11:35:53;;;;;;;25.23;17.52;;;;;;;11.91;nan;101320.53;4909122;29;20328;-74
2022/03/18 11:38:30;;;;;;;26.52;16.23;;;;;;;11.96;nan;101329.06;4914941;29;20713;-74
2022/03/18 11:41:02;;;;;;;29.85;18.65;;;;;;;12.01;nan;101326.25;4913368;29;20367;-76
2022/03/18 11:43:43;;;;;;;27.83;18.98;;;;;;;12.08;nan;101312.75;4916810;29;20349;-75
2022/03/18 11:46:17;;;;;;;23.70;16.13;;;;;;;12.13;nan;101313.41;4913777;29;20224;-76